Time;durP1;ratioP1;P1;durP2;ratioP2;P2;SDS_P1;SDS_P2;PMS_P1;PMS_P2;Temp;Humidity;BMP_temperature;BMP_pressure;BME280_temperature;BME280_humidity;BME280_pressure;Samples;Min_cycle;Max_cycle;Signal;HPM_P1;HPM_P2
2022/03/25 00:01:09;;;;;;;;;20.25;17.25;;;;;18.34;42.25;103095.75;4938487;29;8805;-72
2022/03/25 00:03:34;;;;;;;;;17.25;16.25;;;;;18.33;42.07;103101.94;4942415;29;8821;-71
2022/03/25 00:06:00;;;;;;;;;15.75;15.25;;;;;18.33;42.21;103094.84;4937968;29;8841;-71
2022/03/25 00:08:26;;;;;;;;;18.00;17.00;;;;;18.34;42.11;103095.75;4933800;29;8849;-71
2022/03/25 00:10:51;;;;;;;;;16.50;13.00;;;;;18.33;42.23;103101.94;4933743;29;9995;-70
2022/03/25 00:13:17;;;;;;;;;18.00;14.25;;;;;18.31;41.96;103088.66;4930756;29;8809;-71
2022/03/25 00:15:42;;;;;;;;;17.25;15.25;;;;;18.29;41.86;103098.31;4940541;29;8828;-70
2022/03/25 00:18:07;;;;;;;;;16.25;15.00;;;;;18.30;42.03;103101.81;4942487;29;8839;-70
2022/03/25 00:20:33;;;;;;;;;17.25;15.50;;;;;18.30;41.79;103097.44;4938132;29;8833;-70
2022/03/25 00:22:58;;;;;;;;;15.75;15.75;;;;;18.28;42.23;103099.16;4933530;29;8797;-71
2022/03/25 00:25:23;;;;;;;;;21.75;20.50;;;;;18.28;41.70;103109.75;4933551;29;8814;-70
2022/03/25 00:27:49;;;;;;;;;20.00;18.25;;;;;18.28;41.91;103104.44;4932459;29;9617;-70
2022/03/25 00:30:14;;;;;;;;;19.00;17.50;;;;;18.27;41.92;103101.75;4932777;29;9546;-71
2022/03/25 00:32:40;;;;;;;;;19.00;18.75;;;;;18.26;42.02;103098.22;4933241;29;8833;-70
2022/03/25 00:35:06;;;;;;;;;18.75;17.00;;;;;18.25;41.91;103104.38;4932051;29;8804;-70
2022/03/25 00:37:32;;;;;;;;;18.75;15.25;;;;;18.24;41.99;103099.94;4932703;29;10255;-70
2022/03/25 00:39:58;;;;;;;;;15.25;15.25;;;;;18.24;41.73;103088.47;4932534;29;10076;-70
2022/03/25 00:42:24;;;;;;;;;15.75;15.75;;;;;18.22;41.61;103091.03;4932643;29;8808;-70
2022/03/25 00:44:50;;;;;;;;;15.25;15.25;;;;;18.22;41.58;103096.34;4932856;29;8825;-71
2022/03/25 00:47:15;;;;;;;;;18.00;17.00;;;;;18.22;41.98;103093.69;4932150;29;10104;-70
2022/03/25 00:49:40;;;;;;;;;17.50;16.75;;;;;18.19;41.95;103092.72;4932903;29;8856;-70
2022/03/25 00:52:06;;;;;;;;;19.00;17.50;;;;;18.21;41.63;103105.16;4932458;29;8824;-70
2022/03/25 00:54:31;;;;;;;;;17.00;17.00;;;;;18.21;41.54;103102.50;4931941;29;8935;-70
2022/03/25 00:56:57;;;;;;;;;19.00;16.00;;;;;18.21;41.94;103104.25;4932638;29;8897;-71
2022/03/25 00:59:22;;;;;;;;;14.75;14.75;;;;;18.19;41.93;103096.25;4932984;29;8823;-71
2022/03/25 01:01:48;;;;;;;;;16.25;15.25;;;;;18.19;41.88;103098.00;4932079;29;8806;-70
2022/03/25 01:04:13;;;;;;;;;18.00;16.00;;;;;18.19;41.45;103103.28;4932589;29;8801;-71
2022/03/25 01:06:40;;;;;;;;;20.25;17.50;;;;;18.18;41.66;103101.53;4932517;29;8833;-71
2022/03/25 01:09:06;;;;;;;;;18.00;17.00;;;;;18.18;41.79;103098.88;4931430;29;8844;-70
2022/03/25 01:11:33;;;;;;;;;19.00;17.50;;;;;18.18;41.59;103094.47;4932747;29;10988;-71
2022/03/25 01:13:58;;;;;;;;;19.75;17.75;;;;;18.16;41.77;103101.47;4928665;29;8786;-71
2022/03/25 01:16:24;;;;;;;;;19.25;17.00;;;;;18.16;41.49;103101.47;4931607;29;10360;-70
2022/03/25 01:18:50;;;;;;;;;17.25;16.00;;;;;18.17;41.59;103099.72;4935183;29;8830;-71
2022/03/25 01:21:17;;;;;;;;;20.50;20.50;;;;;18.14;41.44;103105.84;4935596;29;8809;-70
2022/03/25 01:23:43;;;;;;;;;17.25;16.25;;;;;18.15;41.63;103101.41;4935196;29;8802;-71
2022/03/25 01:26:08;;;;;;;;;20.50;17.50;;;;;18.15;41.72;103104.97;4935714;29;10159;-70
2022/03/25 01:28:34;;;;;;;;;16.25;16.00;;;;;18.13;41.48;103100.50;4935926;29;8825;-71
2022/03/25 01:31:03;;;;;;;;;13.25;13.25;;;;;18.14;41.42;103099.66;4935141;29;8965;-71
2022/03/25 01:33:30;;;;;;;;;20.25;18.75;;;;;18.14;41.46;103097.00;4936007;29;8806;-71
2022/03/25 01:35:55;;;;;;;;;22.25;19.25;;;;;18.13;41.57;103100.50;4935392;29;10190;-70
2022/03/25 01:38:21;;;;;;;;;23.75;19.00;;;;;18.10;41.59;103097.78;4935049;29;10366;-70
2022/03/25 01:40:46;;;;;;;;;21.25;21.25;;;;;18.10;41.46;103096.03;4935763;29;8801;-71
2022/03/25 01:43:12;;;;;;;;;20.50;20.25;;;;;18.09;41.78;103088.94;4935482;29;8810;-71
2022/03/25 01:45:40;;;;;;;;;15.75;14.50;;;;;18.10;41.63;103090.75;4934933;29;8809;-71
2022/03/25 01:48:13;;;;;;;;;22.25;22.25;;;;;18.11;41.39;103095.16;4935111;29;8826;-71
2022/03/25 01:50:42;;;;;;;;;21.00;18.25;;;;;18.11;41.36;103091.66;4934664;29;10171;-72
2022/03/25 01:53:14;;;;;;;;;21.00;20.00;;;;;18.10;41.43;103093.41;4935244;29;10365;-71
2022/03/25 01:55:48;;;;;;;;;17.25;17.00;;;;;18.11;41.76;103099.59;4935710;29;10345;-71
2022/03/25 01:58:13;;;;;;;;;19.75;19.25;;;;;18.08;41.33;103097.72;4934608;29;10305;-71
2022/03/25 02:00:40;;;;;;;;;23.25;23.25;;;;;18.08;41.73;103096.81;4935327;29;10361;-70
2022/03/25 02:03:05;;;;;;;;;15.00;15.00;;;;;18.08;41.47;103094.19;4934802;29;8793;-71
2022/03/25 02:05:30;;;;;;;;;19.75;18.25;;;;;18.07;41.45;103095.06;4934542;29;10226;-71
2022/03/25 02:07:56;;;;;;;;;24.00;22.75;;;;;18.05;41.89;103087.06;4934825;29;8825;-71
2022/03/25 02:10:22;;;;;;;;;18.00;15.00;;;;;18.06;41.52;103094.16;4935280;29;8854;-71
2022/03/25 02:12:47;;;;;;;;;16.75;16.75;;;;;18.06;41.60;103094.16;4930674;29;8812;-71
2022/03/25 02:15:12;;;;;;;;;19.50;16.50;;;;;18.06;41.60;103101.19;4934833;29;8822;-71
2022/03/25 02:17:38;;;;;;;;;18.00;18.00;;;;;18.06;41.80;103095.91;4935092;29;8793;-71
2022/03/25 02:20:08;;;;;;;;;17.75;17.00;;;;;18.05;41.41;103097.66;4934255;29;8810;-71
2022/03/25 02:22:37;;;;;;;;;16.75;16.50;;;;;18.05;41.35;103095.00;4935467;29;8789;-71
2022/03/25 02:25:08;;;;;;;;;21.00;18.00;;;;;18.01;41.38;103086.94;4934956;29;10247;-71
2022/03/25 02:27:36;;;;;;;;;21.75;21.00;;;;;18.01;41.54;103090.50;4934600;29;10259;-71
2022/03/25 02:30:02;;;;;;;;;21.25;21.25;;;;;18.03;41.69;103088.81;4933766;29;10364;-71
2022/03/25 02:32:27;;;;;;;;;20.25;19.00;;;;;18.04;41.50;103095.84;4934744;29;10322;-71
2022/03/25 02:34:53;;;;;;;;;20.25;17.50;;;;;18.03;41.56;103093.19;4934116;29;10259;-71
2022/03/25 02:37:19;;;;;;;;;20.00;18.75;;;;;18.02;41.82;103089.66;4935364;29;8830;-71
2022/03/25 02:39:44;;;;;;;;;21.00;21.00;;;;;18.01;41.68;103090.50;4934944;29;8810;-70
2022/03/25 02:42:10;;;;;;;;;22.00;21.00;;;;;18.02;41.77;103091.41;4934201;29;10424;-69
2022/03/25 02:44:35;;;;;;;;;18.50;17.00;;;;;18.00;41.48;103090.44;4934738;29;9590;-70
2022/03/25 02:47:00;;;;;;;;;24.00;20.25;;;;;18.00;41.59;103093.97;4933189;29;8932;-70
2022/03/25 02:49:26;;;;;;;;;18.25;18.00;;;;;17.99;41.49;103088.66;4934781;29;8818;-71
2022/03/25 02:51:51;;;;;;;;;21.25;20.25;;;;;18.00;41.72;103093.09;4934571;29;8899;-71
2022/03/25 02:54:16;;;;;;;;;17.00;15.50;;;;;17.98;41.37;103095.69;4933736;29;8798;-71
2022/03/25 02:56:41;;;;;;;;;19.75;19.75;;;;;17.99;41.62;103093.97;4935615;29;8797;-71
2022/03/25 02:59:07;;;;;;;;;20.25;17.25;;;;;17.98;41.56;103102.72;4934077;29;9636;-71
2022/03/25 03:01:33;;;;;;;;;21.25;20.25;;;;;17.98;41.50;103092.16;4933646;29;8790;-71
2022/03/25 03:03:59;;;;;;;;;22.75;17.50;;;;;17.97;41.55;103093.91;4934806;29;8896;-71
2022/03/25 03:06:24;;;;;;;;;22.50;18.25;;;;;17.98;41.67;103095.69;4942655;29;10407;-70
2022/03/25 03:08:50;;;;;;;;;21.00;21.00;;;;;17.97;41.78;103093.91;4939547;29;8868;-70
2022/03/25 03:11:15;;;;;;;;;21.25;17.00;;;;;17.96;41.66;103092.09;4934333;29;8924;-70
2022/03/25 03:13:40;;;;;;;;;21.75;20.50;;;;;17.98;41.56;103092.16;4922071;29;8851;-70
2022/03/25 03:16:06;;;;;;;;;25.00;21.25;;;;;17.93;41.69;103084.09;4915175;29;8808;-71
2022/03/25 03:18:32;;;;;;;;;22.75;22.75;;;;;17.96;41.80;103088.59;4916483;29;8911;-70
2022/03/25 03:20:58;;;;;;;;;23.00;19.75;;;;;17.97;41.81;103085.06;4920615;29;8807;-70
2022/03/25 03:23:23;;;;;;;;;22.75;22.50;;;;;17.95;41.62;103090.34;4916325;29;10433;-70
2022/03/25 03:25:48;;;;;;;;;23.00;22.00;;;;;17.95;41.82;103084.16;4915394;29;8951;-70
2022/03/25 03:28:14;;;;;;;;;22.25;20.75;;;;;17.94;41.79;103083.25;4914677;29;8840;-70
2022/03/25 03:30:39;;;;;;;;;21.75;21.75;;;;;17.94;41.62;103082.34;4914175;29;8804;-70
2022/03/25 03:33:05;;;;;;;;;24.75;23.50;;;;;17.95;41.56;103086.78;4914630;29;8955;-71
2022/03/25 03:35:32;;;;;;;;;21.00;21.00;;;;;17.94;41.82;103082.34;4914912;29;8836;-70
2022/03/25 03:37:58;;;;;;;;;19.25;19.25;;;;;17.94;41.59;103080.63;4914045;29;8819;-70
2022/03/25 03:40:23;;;;;;;;;21.50;20.75;;;;;17.91;41.79;103079.63;4914315;29;10578;-70
2022/03/25 03:42:49;;;;;;;;;24.00;23.25;;;;;17.92;41.87;103079.66;4914944;29;8846;-70
2022/03/25 03:45:14;;;;;;;;;23.00;22.00;;;;;17.91;41.77;103080.53;4913264;29;8819;-70
2022/03/25 03:47:41;;;;;;;;;23.00;18.00;;;;;17.91;41.67;103085.81;4914680;29;8797;-69
2022/03/25 03:50:09;;;;;;;;;21.00;19.00;;;;;17.90;41.63;103089.31;4913821;29;8832;-70
2022/03/25 03:52:35;;;;;;;;;22.50;20.50;;;;;17.89;41.70;103084.88;4914609;29;10430;-71
2022/03/25 03:55:03;;;;;;;;;23.25;23.00;;;;;17.90;41.56;103094.59;4914132;29;11122;-70
2022/03/25 03:57:28;;;;;;;;;25.75;22.00;;;;;17.88;41.85;103093.69;4913870;29;10619;-70
2022/03/25 03:59:54;;;;;;;;;21.50;14.75;;;;;17.87;41.83;103091.88;4914100;29;10397;-69
2022/03/25 04:02:20;;;;;;;;;21.50;19.25;;;;;17.90;41.64;103091.06;4914621;29;8919;-70
2022/03/25 04:04:48;;;;;;;;;25.50;23.00;;;;;17.85;41.93;103090.91;4913545;29;11149;-69
2022/03/25 04:07:15;;;;;;;;;20.00;20.00;;;;;17.88;41.59;103098.97;4913779;29;9592;-70
2022/03/25 04:09:41;;;;;;;;;24.75;21.25;;;;;17.85;41.84;103090.91;4914498;29;10505;-70
2022/03/25 04:12:09;;;;;;;;;29.75;24.75;;;;;17.86;41.81;103098.91;4916912;29;11246;-70
2022/03/25 04:14:34;;;;;;;;;21.75;19.75;;;;;17.85;41.69;103102.38;4895309;29;10432;-71
2022/03/25 04:17:00;;;;;;;;;23.50;21.75;;;;;17.85;41.52;103098.84;4895108;29;10557;-71
2022/03/25 04:19:25;;;;;;;;;26.50;19.75;;;;;17.85;41.92;103104.13;4894669;29;8894;-71
2022/03/25 04:21:50;;;;;;;;;23.50;23.50;;;;;17.85;41.87;103099.75;4895338;29;8807;-70
2022/03/25 04:24:15;;;;;;;;;24.75;24.75;;;;;17.85;41.54;103098.84;4894764;29;8818;-71
2022/03/25 04:26:41;;;;;;;;;27.00;25.00;;;;;17.84;41.80;103091.78;4894789;29;8827;-71
2022/03/25 04:29:06;;;;;;;;;24.75;23.75;;;;;17.82;41.76;103099.66;4894857;29;8838;-71
2022/03/25 04:31:31;;;;;;;;;25.25;21.00;;;;;17.82;41.52;103094.38;4894440;29;8890;-71
2022/03/25 04:33:57;;;;;;;;;26.25;26.25;;;;;17.83;41.60;103100.56;4894090;29;8939;-71
2022/03/25 04:36:22;;;;;;;;;27.50;25.00;;;;;17.83;41.61;103097.91;4895072;29;8811;-71
2022/03/25 04:38:47;;;;;;;;;13.50;12.00;;;;;17.83;41.71;103095.28;4895185;29;8830;-70
2022/03/25 04:41:14;;;;;;;;;26.75;25.75;;;;;17.78;41.77;103094.25;4894287;29;8926;-70
2022/03/25 04:43:39;;;;;;;;;25.50;25.50;;;;;17.79;41.93;103099.59;4895273;29;8865;-70
2022/03/25 04:46:05;;;;;;;;;23.25;21.25;;;;;17.81;41.73;103092.59;4894697;29;10430;-70
2022/03/25 04:48:32;;;;;;;;;29.00;25.75;;;;;17.81;41.60;103096.97;4894365;29;8847;-71
2022/03/25 04:50:58;;;;;;;;;24.25;24.25;;;;;17.79;41.87;103099.59;4894676;29;10563;-71
2022/03/25 04:53:25;;;;;;;;;25.00;25.00;;;;;17.79;41.80;103099.59;4896748;29;10435;-70
2022/03/25 04:55:53;;;;;;;;;22.50;21.00;;;;;17.78;41.65;103097.78;4898259;29;8945;-70
2022/03/25 04:58:19;;;;;;;;;25.50;24.50;;;;;17.80;42.18;103097.84;4898370;29;10568;-71
2022/03/25 05:00:47;;;;;;;;;22.25;21.50;;;;;17.80;42.03;103104.03;4897865;29;10416;-71
2022/03/25 05:03:12;;;;;;;;;25.25;21.25;;;;;17.82;42.13;103104.06;4898313;29;8795;-71
2022/03/25 05:05:42;;;;;;;;;26.75;24.00;;;;;17.78;42.12;103105.72;4898148;29;10483;-70
2022/03/25 05:08:08;;;;;;;;;25.50;22.50;;;;;17.79;42.35;103111.91;4897245;29;8841;-71
2022/03/25 05:10:33;;;;;;;;;26.00;24.75;;;;;17.79;42.39;103109.25;4898423;29;10361;-71
2022/03/25 05:12:59;;;;;;;;;21.50;20.00;;;;;17.76;42.54;103112.72;4912125;29;10368;-71
2022/03/25 05:15:24;;;;;;;;;24.50;24.50;;;;;17.78;42.56;103113.63;4916545;29;8879;-71
2022/03/25 05:17:53;;;;;;;;;18.00;18.00;;;;;17.77;42.31;103119.78;4916844;29;8828;-71
2022/03/25 05:20:20;;;;;;;;;24.50;24.50;;;;;17.77;42.36;103117.13;4917235;29;9640;-71
2022/03/25 05:22:47;;;;;;;;;22.50;21.50;;;;;17.76;42.41;103118.00;4915916;29;10296;-71
2022/03/25 05:25:13;;;;;;;;;22.50;22.50;;;;;17.77;42.92;103118.91;4916346;29;10439;-71
2022/03/25 05:27:54;;;;;;;;;23.25;23.25;;;;;17.75;42.41;103117.94;4917154;29;10415;-71
2022/03/25 05:30:21;;;;;;;;;25.75;22.50;;;;;17.75;42.54;103116.22;4916100;29;10419;-71
2022/03/25 05:32:47;;;;;;;;;25.25;24.00;;;;;17.72;42.67;103116.13;4916825;29;10432;-71
2022/03/25 05:35:12;;;;;;;;;25.00;22.50;;;;;17.76;42.89;103117.09;4916651;29;10429;-71
2022/03/25 05:37:41;;;;;;;;;25.25;22.25;;;;;17.76;42.74;103120.66;4915913;29;8797;-71
2022/03/25 05:40:09;;;;;;;;;28.00;26.25;;;;;17.71;43.03;103114.31;4916736;29;8883;-71
2022/03/25 05:42:34;;;;;;;;;18.50;18.50;;;;;17.74;42.83;103122.34;4916713;29;10398;-70
2022/03/25 05:44:59;;;;;;;;;25.00;24.25;;;;;17.73;42.80;103119.66;4915835;29;11320;-71
2022/03/25 05:47:25;;;;;;;;;26.00;24.25;;;;;17.73;43.01;103124.94;4916576;29;8812;-71
2022/03/25 05:49:50;;;;;;;;;27.25;27.25;;;;;17.74;42.99;103124.06;4915593;29;8902;-72
2022/03/25 05:52:16;;;;;;;;;25.50;23.25;;;;;17.74;42.92;103132.00;4916222;29;8808;-71
2022/03/25 05:54:42;;;;;;;;;20.50;20.50;;;;;17.73;43.23;103124.94;4916943;29;8816;-71
2022/03/25 05:57:07;;;;;;;;;25.50;23.75;;;;;17.73;42.80;103124.94;4915395;29;8833;-71
2022/03/25 05:59:33;;;;;;;;;28.25;25.50;;;;;17.72;43.01;103126.69;4916552;29;8808;-71
2022/03/25 06:01:58;;;;;;;;;25.75;24.00;;;;;17.73;42.93;103132.88;4916482;29;8919;-71
2022/03/25 06:04:23;;;;;;;;;25.75;25.00;;;;;17.73;43.07;103130.22;4915922;29;8827;-71
2022/03/25 06:06:49;;;;;;;;;23.25;20.25;;;;;17.74;43.02;103130.25;4917356;29;8820;-71
2022/03/25 06:09:14;;;;;;;;;28.25;26.75;;;;;17.68;43.08;103130.09;4925013;29;8902;-71
2022/03/25 06:11:39;;;;;;;;;21.25;18.50;;;;;17.73;43.45;103135.53;4921872;29;9652;-72
2022/03/25 06:14:07;;;;;;;;;25.00;23.75;;;;;17.70;43.06;103133.66;4920924;29;8840;-71
2022/03/25 06:16:33;;;;;;;;;24.00;21.75;;;;;17.71;43.26;103145.13;4917707;29;8801;-71
2022/03/25 06:18:58;;;;;;;;;23.75;23.50;;;;;17.72;43.15;103139.91;4921840;29;10435;-71
2022/03/25 06:21:23;;;;;;;;;27.75;25.75;;;;;17.71;43.09;103146.03;4925593;29;8914;-72
2022/03/25 06:23:49;;;;;;;;;25.25;24.25;;;;;17.70;43.15;103152.16;4924586;29;8819;-72
2022/03/25 06:26:14;;;;;;;;;26.00;24.50;;;;;17.68;43.38;103153.88;4919590;29;8828;-72
2022/03/25 06:28:39;;;;;;;;;24.50;24.50;;;;;17.71;43.28;103153.06;4917262;29;9548;-72
2022/03/25 06:31:05;;;;;;;;;29.50;26.50;;;;;17.69;43.33;103154.78;4916168;29;8851;-71
2022/03/25 06:33:30;;;;;;;;;26.25;25.75;;;;;17.69;43.50;103155.69;4915950;29;8844;-71
2022/03/25 06:35:56;;;;;;;;;26.00;24.25;;;;;17.70;43.47;103159.19;4915926;29;8793;-71
2022/03/25 06:38:21;;;;;;;;;28.50;27.75;;;;;17.71;43.16;103166.25;4916079;29;8805;-72
2022/03/25 06:40:47;;;;;;;;;31.50;26.50;;;;;17.69;43.38;103165.34;4915613;29;10666;-70
2022/03/25 06:43:12;;;;;;;;;23.00;23.00;;;;;17.69;43.47;103170.63;4915488;29;8820;-70
2022/03/25 06:45:40;;;;;;;;;30.00;25.00;;;;;17.69;43.32;103160.97;4915664;29;8816;-71
2022/03/25 06:48:06;;;;;;;;;27.50;25.50;;;;;17.69;43.57;103162.69;4914788;29;8854;-71
2022/03/25 06:50:31;;;;;;;;;22.75;22.75;;;;;17.70;43.27;103167.09;4915256;29;10436;-71
2022/03/25 06:52:57;;;;;;;;;28.50;26.25;;;;;17.69;43.21;103165.34;4915009;29;8816;-71
2022/03/25 06:55:23;;;;;;;;;33.25;25.25;;;;;17.70;43.44;103170.66;4915162;29;8808;-71
2022/03/25 06:57:50;;;;;;;;;26.25;24.00;;;;;17.75;44.84;103170.78;4915439;29;11191;-76
2022/03/25 07:00:17;;;;;;;;;30.25;29.75;;;;;17.82;45.21;103180.69;4914418;29;10530;-76
2022/03/25 07:02:43;;;;;;;;;28.75;27.00;;;;;17.87;45.18;103179.09;4915229;29;10637;-75
2022/03/25 07:05:10;;;;;;;;;28.25;26.00;;;;;17.95;46.75;103176.66;4914822;29;10429;-73
2022/03/25 07:07:37;;;;;;;;;29.75;24.50;;;;;18.03;46.00;103180.41;4914069;29;10522;-77
2022/03/25 07:10:04;;;;;;;;;29.50;28.25;;;;;18.10;47.32;103185.94;4915019;29;10495;-71
2022/03/25 07:12:33;;;;;;;;;23.50;22.50;;;;;18.14;47.08;103182.50;4918388;29;10435;-70
2022/03/25 07:14:58;;;;;;;;;20.75;19.25;;;;;18.20;49.63;103180.03;4913221;29;10411;-70
2022/03/25 07:17:23;;;;;;;;;31.25;30.25;;;;;18.18;50.79;103179.06;4914729;29;10684;-70
2022/03/25 07:19:49;;;;;;;;;30.50;27.00;;;;;18.32;50.03;103180.38;4914854;29;8839;-70
2022/03/25 07:22:14;;;;;;;;;33.00;29.25;;;;;18.60;52.67;103176.72;4913947;29;8804;-72
2022/03/25 07:24:39;;;;;;;;;30.50;27.25;;;;;18.62;54.34;103185.59;4915072;29;8846;-71
2022/03/25 07:27:05;;;;;;;;;32.50;29.75;;;;;18.45;54.27;103184.22;4914671;29;8800;-71
2022/03/25 07:29:30;;;;;;;;;28.50;28.50;;;;;18.40;53.56;103193.81;4913980;29;8922;-72
2022/03/25 07:31:55;;;;;;;;;34.25;33.25;;;;;18.37;54.35;103196.34;4914476;29;8805;-72
2022/03/25 07:34:20;;;;;;;;;36.75;32.75;;;;;18.35;53.99;103198.97;4914509;29;8809;-71
2022/03/25 07:36:46;;;;;;;;;28.75;27.00;;;;;18.32;54.30;103204.16;4914125;29;8820;-71
2022/03/25 07:39:11;;;;;;;;;36.50;32.00;;;;;18.33;54.45;103205.94;4914541;29;8804;-72
2022/03/25 07:41:36;;;;;;;;;41.50;36.50;;;;;18.36;53.70;103210.44;4914377;29;8911;-70
2022/03/25 07:44:02;;;;;;;;;36.00;33.50;;;;;18.34;53.67;103214.78;4913438;29;8812;-70
2022/03/25 07:46:28;;;;;;;;;31.25;27.75;;;;;18.35;53.18;103219.22;4914570;29;9545;-70
2022/03/25 07:48:54;;;;;;;;;31.25;29.75;;;;;18.38;53.69;103221.03;4913671;29;10612;-69
2022/03/25 07:51:22;;;;;;;;;38.50;34.25;;;;;18.37;53.43;103217.50;4913824;29;11337;-69
2022/03/25 07:53:47;;;;;;;;;38.50;34.00;;;;;18.40;53.19;103222.00;4914511;29;8831;-70
2022/03/25 07:56:13;;;;;;;;;35.00;32.50;;;;;18.38;53.03;103218.41;4913807;29;10705;-69
2022/03/25 07:58:38;;;;;;;;;35.00;30.00;;;;;18.38;53.04;103221.03;4913659;29;8931;-69
2022/03/25 08:01:06;;;;;;;;;36.25;32.50;;;;;18.37;52.93;103221.91;4913704;29;8793;-69
2022/03/25 08:03:31;;;;;;;;;27.25;27.25;;;;;18.39;52.54;103226.38;4913332;29;8855;-70
2022/03/25 08:05:57;;;;;;;;;28.00;25.00;;;;;18.40;52.62;103228.19;4913836;29;10790;-69
2022/03/25 08:08:22;;;;;;;;;32.50;30.25;;;;;18.40;52.71;103233.47;4914040;29;8963;-70
2022/03/25 08:10:54;;;;;;;;;30.50;30.50;;;;;18.43;52.41;103244.13;4913682;29;8808;-70
2022/03/25 08:13:20;;;;;;;;;27.75;26.50;;;;;18.44;51.84;103250.31;4917856;29;8880;-70
2022/03/25 08:15:45;;;;;;;;;33.50;30.00;;;;;18.40;51.55;103244.06;4913892;29;10607;-70
2022/03/25 08:18:11;;;;;;;;;28.25;27.25;;;;;18.40;52.05;103233.47;4912836;29;8816;-70
2022/03/25 08:20:41;;;;;;;;;29.50;27.50;;;;;18.41;51.48;103237.03;4914209;29;8796;-70
2022/03/25 08:23:12;;;;;;;;;36.75;30.00;;;;;18.42;51.72;103244.06;4913902;29;8825;-69
2022/03/25 08:28:22;;;;;;;;;31.25;28.25;;;;;18.43;50.96;103251.16;4917539;29;10547;-70
2022/03/25 08:30:48;;;;;;;;;24.50;22.25;;;;;18.45;51.16;103244.16;4917995;29;10632;-70
2022/03/25 08:33:14;;;;;;;;;25.75;24.50;;;;;18.46;50.98;103251.25;4916837;29;8796;-70
2022/03/25 08:35:41;;;;;;;;;22.50;20.75;;;;;18.46;50.69;103252.16;4918029;29;8899;-70
2022/03/25 08:38:07;;;;;;;;;28.25;26.50;;;;;18.46;50.68;103256.53;4917475;29;8891;-69
2022/03/25 08:40:34;;;;;;;;;28.75;28.00;;;;;18.48;50.59;103255.75;4916990;29;10512;-69
2022/03/25 08:43:01;;;;;;;;;38.75;32.25;;;;;18.51;50.46;103255.88;4917532;29;10438;-70
2022/03/25 08:45:30;;;;;;;;;26.00;23.00;;;;;18.52;50.44;103249.69;4917685;29;10551;-70
2022/03/25 08:47:55;;;;;;;;;28.25;27.50;;;;;18.55;50.27;103257.75;4917132;29;10346;-70
2022/03/25 08:50:22;;;;;;;;;31.00;26.50;;;;;18.57;50.41;103260.41;4917539;29;11235;-70
2022/03/25 08:52:49;;;;;;;;;23.00;21.00;;;;;18.53;50.27;103259.44;4917062;29;8793;-69
2022/03/25 08:55:17;;;;;;;;;25.25;24.25;;;;;18.56;50.18;103263.94;4917127;29;10261;-69
2022/03/25 08:57:42;;;;;;;;;21.75;21.00;;;;;18.57;50.07;103271.91;4917177;29;10424;-69
2022/03/25 09:00:10;;;;;;;;;27.00;26.25;;;;;18.61;50.07;103265.84;4916495;29;10258;-70
2022/03/25 09:02:37;;;;;;;;;23.25;22.50;;;;;18.63;49.78;103260.59;4917531;29;8797;-70
2022/03/25 09:05:04;;;;;;;;;26.50;21.75;;;;;18.62;49.82;103262.34;4916959;29;10175;-70
2022/03/25 09:07:29;;;;;;;;;21.50;21.50;;;;;18.64;49.65;103254.44;4917064;29;10484;-70
2022/03/25 09:09:55;;;;;;;;;25.00;23.25;;;;;18.64;49.55;103267.66;4922425;29;10351;-70
2022/03/25 09:12:20;;;;;;;;;20.00;19.25;;;;;18.65;49.39;103272.09;4924578;29;8840;-70
2022/03/25 09:14:45;;;;;;;;;20.25;20.00;;;;;18.64;49.39;103273.84;4936761;29;8794;-70
2022/03/25 09:17:11;;;;;;;;;24.75;22.75;;;;;18.64;49.31;103271.19;4935639;29;8830;-70
2022/03/25 09:19:36;;;;;;;;;24.75;23.50;;;;;18.66;49.30;103269.50;4935934;29;8806;-69
2022/03/25 09:22:01;;;;;;;;;24.75;24.50;;;;;18.67;48.94;103265.97;4935430;29;8861;-70
2022/03/25 09:24:27;;;;;;;;;22.00;21.00;;;;;18.69;49.14;103272.22;4942694;29;8802;-68
2022/03/25 09:26:52;;;;;;;;;25.50;23.25;;;;;18.66;49.22;103268.63;4942254;29;8806;-69
2022/03/25 09:29:17;;;;;;;;;22.50;20.25;;;;;18.71;48.72;103273.16;4939390;29;8850;-69
2022/03/25 09:31:48;;;;;;;;;20.75;20.75;;;;;18.74;49.14;103270.63;4936352;29;8905;-69
2022/03/25 09:36:57;;;;;;;;;28.25;23.50;;;;;18.76;48.83;103273.28;4934768;29;10133;-68
2022/03/25 09:39:22;;;;;;;;;23.00;23.00;;;;;18.75;48.71;103268.84;4935167;29;10217;-69
2022/03/25 09:41:49;;;;;;;;;26.50;24.50;;;;;18.78;48.43;103274.25;4935064;29;8817;-69
2022/03/25 09:44:16;;;;;;;;;21.25;20.00;;;;;18.79;48.40;103268.06;4935490;29;8804;-69
2022/03/25 09:46:42;;;;;;;;;19.50;18.75;;;;;18.78;48.48;103268.94;4935839;29;10181;-68
2022/03/25 09:49:09;;;;;;;;;23.50;22.00;;;;;18.76;48.36;103266.25;4934732;29;10437;-68
2022/03/25 09:51:35;;;;;;;;;23.50;23.00;;;;;18.77;48.35;103269.78;4935228;29;8801;-69
2022/03/25 09:54:03;;;;;;;;;21.50;21.25;;;;;18.78;48.40;103261.88;4935077;29;11162;-69
2022/03/25 09:56:29;;;;;;;;;21.50;21.50;;;;;18.80;48.40;103269.88;4934510;29;10193;-71
2022/03/25 09:58:54;;;;;;;;;19.75;18.75;;;;;18.79;48.41;103265.41;4935117;29;10164;-69
2022/03/25 10:01:20;;;;;;;;;21.00;20.50;;;;;18.83;48.32;103269.94;4935591;29;8809;-70
2022/03/25 10:03:46;;;;;;;;;17.00;17.00;;;;;18.82;48.23;103271.69;4935661;29;8789;-69
2022/03/25 10:06:12;;;;;;;;;22.75;19.25;;;;;18.83;47.91;103270.84;4934791;29;8825;-69
2022/03/25 10:08:38;;;;;;;;;19.75;19.25;;;;;18.84;48.06;103274.38;4934959;29;8841;-69
2022/03/25 10:11:30;;;;;;;;;18.00;18.00;;;;;18.83;47.84;103269.94;4934256;29;10962;-70
2022/03/25 10:14:17;;;;;;;;;20.25;20.00;;;;;18.83;47.63;103278.78;4930756;29;8820;-70
2022/03/25 10:16:45;;;;;;;;;23.50;19.00;;;;;18.85;47.64;103270.91;4934886;29;10098;-70
2022/03/25 10:19:11;;;;;;;;;21.75;19.75;;;;;18.82;47.79;103263.75;4934016;29;10198;-69
2022/03/25 10:22:08;;;;;;;;;19.00;19.00;;;;;18.86;47.65;103270.00;4934816;29;10698;-69
2022/03/25 10:24:52;;;;;;;;;18.50;18.00;;;;;18.90;47.58;103261.28;4901955;29;8899;-69
2022/03/25 10:27:28;;;;;;;;;25.00;22.75;;;;;18.93;47.21;103260.50;4934849;29;10164;-70
2022/03/25 10:29:56;;;;;;;;;19.75;19.75;;;;;18.89;47.30;103254.25;4934856;29;10211;-70
2022/03/25 10:32:25;;;;;;;;;20.50;20.50;;;;;18.91;47.31;103257.81;4934340;29;10095;-70
2022/03/25 10:35:11;;;;;;;;;19.50;18.25;;;;;18.95;47.26;103253.47;4935053;29;10272;-71
2022/03/25 10:37:55;;;;;;;;;20.25;20.00;;;;;18.95;47.36;103257.03;4934543;29;10232;-70
2022/03/25 10:40:21;;;;;;;;;18.25;17.75;;;;;18.95;47.24;103256.13;4933695;29;10076;-70
2022/03/25 10:43:03;;;;;;;;;20.25;19.50;;;;;18.95;47.09;103257.03;4934511;29;10018;-70
2022/03/25 10:45:28;;;;;;;;;19.50;19.25;;;;;18.97;47.23;103249.13;4934033;29;8961;-70
2022/03/25 10:48:12;;;;;;;;;19.25;19.00;;;;;18.96;47.37;103252.63;4934010;29;10277;-69
2022/03/25 10:51:04;;;;;;;;;22.50;20.50;;;;;19.01;47.03;103251.00;4933756;29;8806;-70
2022/03/25 10:53:34;;;;;;;;;21.00;20.50;;;;;18.99;47.14;103258.00;4933714;29;10083;-70
2022/03/25 10:56:03;;;;;;;;;18.25;16.50;;;;;18.99;47.14;103258.00;4934032;29;10190;-71
2022/03/25 10:58:29;;;;;;;;;25.75;19.75;;;;;19.01;47.12;103253.66;4934544;29;10184;-70
2022/03/25 11:00:54;;;;;;;;;19.75;19.50;;;;;19.02;46.96;103253.69;4933191;29;10174;-70
2022/03/25 11:03:20;;;;;;;;;19.25;19.00;;;;;19.02;47.10;103252.78;4934493;29;8821;-69
2022/03/25 11:05:45;;;;;;;;;22.00;21.00;;;;;19.05;46.88;103247.56;4934290;29;8948;-69
2022/03/25 11:08:11;;;;;;;;;19.75;18.75;;;;;19.03;46.70;103244.00;4933236;29;9549;-69
2022/03/25 11:10:40;;;;;;;;;18.25;17.00;;;;;19.06;46.56;103238.75;4934300;29;8798;-70
2022/03/25 11:13:08;;;;;;;;;19.00;16.25;;;;;19.04;46.70;103249.34;4929951;29;8818;-69
2022/03/25 11:15:34;;;;;;;;;15.75;15.75;;;;;19.06;46.56;103250.25;4933410;29;10059;-70
2022/03/25 11:17:59;;;;;;;;;18.75;15.00;;;;;19.06;46.58;103249.34;4933577;29;10779;-70